createdAt,value
2018-06-24T00:00:10.775Z,13.62
2018-06-24T00:01:10.276Z,13.62
2018-06-24T00:02:10.299Z,13.66
2018-06-24T00:03:10.838Z,13.66
2018-06-24T00:04:25.518Z,13.67
2018-06-24T00:05:10.619Z,13.67
2018-06-24T00:06:10.645Z,13.73
2018-06-24T00:07:10.664Z,13.59
2018-06-24T00:08:10.691Z,13.66
2018-06-24T00:09:10.967Z,13.63
2018-06-24T00:11:11.009Z,13.62
2018-06-24T00:12:25.688Z,13.66
2018-06-24T00:13:11.054Z,13.64
2018-06-24T00:14:10.866Z,13.64
2018-06-24T00:15:11.097Z,13.59
2018-06-24T00:16:10.892Z,13.64
2018-06-24T00:17:10.902Z,13.66
2018-06-24T00:18:11.162Z,13.69
2018-06-24T00:19:11.185Z,13.69
2018-06-24T00:20:11.211Z,13.64
2018-06-24T00:21:11.226Z,13.62
2018-06-24T00:22:25.650Z,13.59
2018-06-24T00:23:11.011Z,13.59
2018-06-24T00:24:11.286Z,13.66
2018-06-24T00:25:11.053Z,13.6
2018-06-24T00:26:11.330Z,13.64
2018-06-24T00:27:11.095Z,13.63
2018-06-24T00:28:26.036Z,13.67
2018-06-24T00:29:11.399Z,13.66
2018-06-24T00:31:11.447Z,13.63
2018-06-24T00:33:11.485Z,13.64
2018-06-24T00:34:11.503Z,13.7
2018-06-24T00:35:11.536Z,13.63
2018-06-24T00:36:11.554Z,13.55
2018-06-24T00:37:11.754Z,13.64
2018-06-24T00:38:11.591Z,13.71
2018-06-24T00:39:11.613Z,13.62
2018-06-24T00:41:11.658Z,13.63
2018-06-24T00:42:11.678Z,13.64
2018-06-24T00:43:26.363Z,13.6
2018-06-24T00:44:11.729Z,13.69
2018-06-24T00:45:11.746Z,13.62
2018-06-24T00:46:11.507Z,13.6
2018-06-24T00:47:11.789Z,13.62
2018-06-24T00:48:11.807Z,13.6
2018-06-24T00:49:11.831Z,13.6
2018-06-24T00:50:11.858Z,13.6
2018-06-24T00:51:11.879Z,13.54
2018-06-24T00:52:41.318Z,13.64
2018-06-24T00:53:11.917Z,13.55
2018-06-24T00:54:11.940Z,13.55
2018-06-24T00:55:11.703Z,13.59
2018-06-24T00:56:11.981Z,13.6
2018-06-24T00:57:12.006Z,13.51
2018-06-24T00:58:11.768Z,13.62
2018-06-24T00:59:12.046Z,13.51
2018-06-24T01:00:12.070Z,13.57
2018-06-24T01:01:12.103Z,13.57
2018-06-24T01:02:12.168Z,13.55
2018-06-24T01:03:12.139Z,13.57
2018-06-24T01:05:12.180Z,13.55
2018-06-24T01:06:12.197Z,13.55
2018-06-24T01:07:12.229Z,13.63
2018-06-24T01:09:12.005Z,13.55
2018-06-24T01:10:27.054Z,13.49
2018-06-24T01:11:12.052Z,13.54
2018-06-24T01:12:12.325Z,13.54
2018-06-24T01:14:12.371Z,13.59
2018-06-24T01:15:27.053Z,13.44
2018-06-24T01:17:12.442Z,13.48
2018-06-24T01:18:12.453Z,13.48
2018-06-24T01:19:12.475Z,13.51
2018-06-24T01:20:12.243Z,13.45
2018-06-24T01:21:12.529Z,13.46
2018-06-24T01:22:12.552Z,13.48
2018-06-24T01:23:12.565Z,13.55
2018-06-24T01:24:12.590Z,13.51
2018-06-24T01:25:12.617Z,13.52
2018-06-24T01:26:12.630Z,13.54
2018-06-24T01:27:12.650Z,13.59
2018-06-24T01:28:12.412Z,13.57
2018-06-24T01:30:12.727Z,13.6
2018-06-24T01:31:27.398Z,13.6
2018-06-24T01:32:12.755Z,13.57
2018-06-24T01:34:12.756Z,13.59
2018-06-24T01:35:12.305Z,13.55
2018-06-24T01:36:12.841Z,13.59
2018-06-24T01:37:12.867Z,13.51
2018-06-24T01:38:12.884Z,13.55
2018-06-24T01:39:27.569Z,13.57
2018-06-24T01:40:12.673Z,13.54
2018-06-24T01:41:12.950Z,13.51
2018-06-24T01:42:12.714Z,13.57
2018-06-24T01:43:12.991Z,13.49
2018-06-24T01:44:12.757Z,13.52
2018-06-24T01:45:13.037Z,13.54
2018-06-24T01:46:12.797Z,13.59
2018-06-24T01:47:27.856Z,13.52
2018-06-24T01:48:13.101Z,13.62
2018-06-24T01:49:13.126Z,13.46
2018-06-24T01:50:13.146Z,13.64
2018-06-24T01:51:27.831Z,13.52
2018-06-24T01:52:13.188Z,13.57
2018-06-24T01:53:13.209Z,13.45
2018-06-24T01:54:12.977Z,13.52
2018-06-24T01:55:13.252Z,13.59
2018-06-24T01:56:27.935Z,13.49
2018-06-24T01:57:13.296Z,13.52
2018-06-24T01:58:13.060Z,13.55
2018-06-24T01:59:13.080Z,13.48
2018-06-24T02:00:12.844Z,13.54
2018-06-24T02:01:13.122Z,13.48
2018-06-24T02:02:13.249Z,13.52
2018-06-24T02:03:28.084Z,13.52
2018-06-24T02:04:12.931Z,13.55
2018-06-24T02:07:13.512Z,13.51
2018-06-24T02:08:13.532Z,13.57
2018-06-24T02:09:13.558Z,13.51
2018-06-24T02:10:13.320Z,13.57
2018-06-24T02:11:28.258Z,13.52
2018-06-24T02:12:13.626Z,13.49
2018-06-24T02:13:13.641Z,13.48
2018-06-24T02:14:13.659Z,13.54
2018-06-24T02:15:13.682Z,13.62
2018-06-24T02:16:13.452Z,13.54
2018-06-24T02:17:13.725Z,13.55
2018-06-24T02:18:28.408Z,13.51
2018-06-24T02:19:13.767Z,13.54
2018-06-24T02:22:13.842Z,13.51
2018-06-24T02:23:13.600Z,13.55
2018-06-24T02:24:13.877Z,13.51
2018-06-24T02:25:13.899Z,13.6
2018-06-24T02:26:13.920Z,13.49
2018-06-24T02:27:28.603Z,13.48
2018-06-24T02:28:13.708Z,13.59
2018-06-24T02:29:13.985Z,13.55
2018-06-24T02:30:14.015Z,13.59
2018-06-24T02:31:14.133Z,13.49
2018-06-24T02:33:13.817Z,13.48
2018-06-24T02:34:14.092Z,13.54
2018-06-24T02:35:14.122Z,13.52
2018-06-24T02:36:28.904Z,13.44
2018-06-24T02:37:14.160Z,13.36
2018-06-24T02:38:14.179Z,13.29
2018-06-24T02:39:13.945Z,13.46
2018-06-24T02:40:14.224Z,13.33
2018-06-24T02:41:13.996Z,13.23
2018-06-24T02:42:14.279Z,13.36
2018-06-24T02:43:14.337Z,13.23
2018-06-24T02:44:14.314Z,13.29
2018-06-24T02:45:14.333Z,13.33
2018-06-24T02:46:14.351Z,13.32
2018-06-24T02:47:14.382Z,13.36
2018-06-24T02:48:14.139Z,13.28
2018-06-24T02:49:14.158Z,13.33
2018-06-24T02:50:29.106Z,13.41
2018-06-24T02:51:14.203Z,13.36
2018-06-24T02:52:14.488Z,13.29
2018-06-24T02:53:13.986Z,13.41
2018-06-24T02:54:14.568Z,13.48
2018-06-24T02:55:14.544Z,13.38
2018-06-24T02:56:14.567Z,13.39
2018-06-24T02:57:14.590Z,13.38
2018-06-24T02:58:14.352Z,13.44
2018-06-24T02:59:14.627Z,13.32
2018-06-24T03:00:14.393Z,13.36
2018-06-24T03:01:14.670Z,13.38
2018-06-24T03:02:14.694Z,13.32
2018-06-24T03:03:14.459Z,13.29
2018-06-24T03:04:14.752Z,13.39
2018-06-24T03:05:14.767Z,13.39
2018-06-24T03:06:29.440Z,13.33
2018-06-24T03:07:14.906Z,13.33
2018-06-24T03:08:14.834Z,13.38
2018-06-24T03:09:14.844Z,13.42
2018-06-24T03:10:14.868Z,13.42
2018-06-24T03:11:14.630Z,13.41
2018-06-24T03:12:14.655Z,13.42
2018-06-24T03:13:14.694Z,13.32
2018-06-24T03:14:14.955Z,13.22
2018-06-24T03:15:14.974Z,13.3
2018-06-24T03:16:14.737Z,13.33
2018-06-24T03:19:14.809Z,13.38
2018-06-24T03:20:15.078Z,13.29
2018-06-24T03:21:15.104Z,13.42
2018-06-24T03:22:29.524Z,13.25
2018-06-24T03:23:15.141Z,13.26
2018-06-24T03:24:14.648Z,13.3
2018-06-24T03:25:15.185Z,13.33
2018-06-24T03:26:14.954Z,13.28
2018-06-24T03:27:15.229Z,13.32
2018-06-24T03:28:14.994Z,13.28
2018-06-24T03:29:15.275Z,13.38
2018-06-24T03:30:15.299Z,13.36
2018-06-24T03:31:29.976Z,13.49
2018-06-24T03:32:15.340Z,13.32
2018-06-24T03:33:15.355Z,13.32
2018-06-24T03:34:15.383Z,13.41
2018-06-24T03:35:15.142Z,13.51
2018-06-24T03:36:15.426Z,13.33
2018-06-24T03:37:15.540Z,13.32
2018-06-24T03:39:15.482Z,13.32
2018-06-24T03:43:15.315Z,13.32
2018-06-24T03:44:15.598Z,13.46
2018-06-24T03:45:15.616Z,13.48
2018-06-24T03:46:15.118Z,13.38
2018-06-24T03:47:15.662Z,13.45
2018-06-24T03:48:15.682Z,13.48
2018-06-24T03:49:15.440Z,13.46
2018-06-24T03:50:15.719Z,13.44
2018-06-24T03:51:15.843Z,13.46
2018-06-24T03:52:15.765Z,13.39
2018-06-24T03:53:30.191Z,13.48
2018-06-24T03:54:15.807Z,13.36
2018-06-24T03:55:15.573Z,13.46
2018-06-24T03:56:15.336Z,13.48
2018-06-24T03:57:15.871Z,13.39
2018-06-24T03:58:16.053Z,13.39
2018-06-24T03:59:15.657Z,13.41
2018-06-24T04:00:30.620Z,13.38
2018-06-24T04:01:15.957Z,13.45
2018-06-24T04:02:15.716Z,13.46
2018-06-24T04:03:16.002Z,13.33
2018-06-24T04:04:16.024Z,13.39
2018-06-24T04:05:16.044Z,13.48
2018-06-24T04:06:16.117Z,13.46
2018-06-24T04:07:15.827Z,13.51
2018-06-24T04:08:16.117Z,13.46
2018-06-24T04:09:16.139Z,13.44
2018-06-24T04:10:16.149Z,13.54
2018-06-24T04:12:15.940Z,13.46
2018-06-24T04:13:16.218Z,13.45
2018-06-24T04:14:16.247Z,13.51
2018-06-24T04:15:16.263Z,13.54
2018-06-24T04:16:16.031Z,13.54
2018-06-24T04:17:16.303Z,13.54
2018-06-24T04:18:31.012Z,13.59
2018-06-24T04:19:16.342Z,13.57
2018-06-24T04:20:16.368Z,13.63
2018-06-24T04:21:16.394Z,13.64
2018-06-24T04:22:16.153Z,13.55
2018-06-24T04:23:16.182Z,13.59
2018-06-24T04:24:16.193Z,13.51
2018-06-24T04:25:31.135Z,13.62
2018-06-24T04:26:16.236Z,13.63
2018-06-24T04:27:31.182Z,13.67
2018-06-24T04:28:16.534Z,13.54
2018-06-24T04:29:16.558Z,13.63
2018-06-24T04:30:16.579Z,13.52
2018-06-24T04:31:31.266Z,13.64
2018-06-24T04:32:16.622Z,13.64
2018-06-24T04:33:16.129Z,13.62
2018-06-24T04:34:16.673Z,13.63
2018-06-24T04:35:16.428Z,13.67
2018-06-24T04:36:31.112Z,13.6
2018-06-24T04:37:16.741Z,13.62
2018-06-24T04:38:16.753Z,13.63
2018-06-24T04:39:16.789Z,13.63
2018-06-24T04:40:16.798Z,13.6
2018-06-24T04:41:31.479Z,13.66
2018-06-24T04:42:16.843Z,13.64
2018-06-24T04:43:16.604Z,13.7
2018-06-24T04:45:16.903Z,13.67
2018-06-24T04:46:16.927Z,13.67
2018-06-24T04:47:16.947Z,13.62
2018-06-24T04:48:16.970Z,13.62
2018-06-24T04:49:16.998Z,13.64
2018-06-24T04:50:17.014Z,13.64
2018-06-24T04:51:17.040Z,13.66
2018-06-24T04:52:17.060Z,13.73
2018-06-24T04:53:31.751Z,13.52
2018-06-24T04:54:17.097Z,13.57
2018-06-24T04:55:16.867Z,13.6
2018-06-24T04:56:17.145Z,13.6
2018-06-24T04:57:31.825Z,13.6
2018-06-24T04:58:16.927Z,13.6
2018-06-24T04:59:17.215Z,13.63
2018-06-24T05:00:16.978Z,13.6
2018-06-24T05:01:16.990Z,13.62
2018-06-24T05:02:17.276Z,13.75
2018-06-24T05:03:17.315Z,13.66
2018-06-24T05:04:17.316Z,13.69
2018-06-24T05:05:17.343Z,13.69
2018-06-24T05:06:17.105Z,13.91
2018-06-24T05:07:31.786Z,13.88
2018-06-24T05:08:17.404Z,13.88
2018-06-24T05:09:17.423Z,13.89
2018-06-24T05:10:17.449Z,13.88
2018-06-24T05:11:17.469Z,13.75
2018-06-24T05:12:17.496Z,13.75
2018-06-24T05:13:32.174Z,13.77
2018-06-24T05:14:17.534Z,13.87
2018-06-24T05:15:17.562Z,13.89
2018-06-24T05:18:17.625Z,13.91
2018-06-24T05:19:17.743Z,13.88
2018-06-24T05:20:17.411Z,13.71
2018-06-24T05:21:32.352Z,13.62
2018-06-24T05:22:17.717Z,13.64
2018-06-24T05:23:32.391Z,13.63
2018-06-24T05:24:17.499Z,13.69
2018-06-24T05:25:17.517Z,13.69
2018-06-24T05:26:17.797Z,13.64
2018-06-24T05:27:17.818Z,13.78
2018-06-24T05:28:32.502Z,13.64
2018-06-24T05:29:17.864Z,13.75
2018-06-24T05:31:17.910Z,13.89
2018-06-24T05:32:17.930Z,13.91
2018-06-24T05:34:17.973Z,13.99
2018-06-24T05:35:17.994Z,13.91
2018-06-24T05:37:18.041Z,13.95
2018-06-24T05:38:18.062Z,13.89
2018-06-24T05:39:17.823Z,13.91
2018-06-24T05:40:18.101Z,13.99
2018-06-24T05:41:18.124Z,13.91
2018-06-24T05:42:18.156Z,13.89
2018-06-24T05:43:17.653Z,13.88
2018-06-24T05:44:18.194Z,13.91
2018-06-24T05:47:18.256Z,13.89
2018-06-24T05:48:18.277Z,13.89
2018-06-24T05:49:18.304Z,14.02
2018-06-24T05:50:18.328Z,13.99
2018-06-24T05:51:18.350Z,14.04
2018-06-24T05:52:18.368Z,14.02
2018-06-24T05:53:18.139Z,13.96
2018-06-24T05:54:18.517Z,14.03
2018-06-24T05:55:18.179Z,14.02
2018-06-24T05:56:18.455Z,14.07
2018-06-24T05:57:18.475Z,14.03
2018-06-24T05:58:18.496Z,13.95
2018-06-24T05:59:18.518Z,13.96
2018-06-24T06:01:18.564Z,14.06
2018-06-24T06:02:18.588Z,14.03
2018-06-24T06:03:18.348Z,14.14
2018-06-24T06:04:18.632Z,14.2
2018-06-24T06:05:18.395Z,14.1
2018-06-24T06:06:18.679Z,14.07
2018-06-24T06:07:18.692Z,14.03
2018-06-24T06:08:33.376Z,14.03
2018-06-24T06:09:18.741Z,13.95
2018-06-24T06:10:19.081Z,13.92
2018-06-24T06:11:18.525Z,13.97
2018-06-24T06:12:18.820Z,14.02
2018-06-24T06:13:18.825Z,14.03
2018-06-24T06:14:18.848Z,14.07
2018-06-24T06:15:18.870Z,14.06
2018-06-24T06:16:33.553Z,14.28
2018-06-24T06:18:18.676Z,14.14
2018-06-24T06:19:18.956Z,14.14
2018-06-24T06:20:18.977Z,14.2
2018-06-24T06:21:19.001Z,14.24
2018-06-24T06:22:19.022Z,14.29
2018-06-24T06:23:19.045Z,14.18
2018-06-24T06:24:18.814Z,14.21
2018-06-24T06:25:19.089Z,14.25
2018-06-24T06:26:33.516Z,14.24
2018-06-24T06:27:33.810Z,14.35
2018-06-24T06:28:19.161Z,14.28
2018-06-24T06:29:19.187Z,14.35
2018-06-24T06:30:19.376Z,14.36
2018-06-24T06:31:18.973Z,14.33
2018-06-24T06:32:33.648Z,14.33
2018-06-24T06:33:19.281Z,14.24
2018-06-24T06:34:19.287Z,14.03
2018-06-24T06:35:19.318Z,14.02
2018-06-24T06:36:19.334Z,14.06
2018-06-24T06:37:19.362Z,14.09
2018-06-24T06:38:19.381Z,14.06
2018-06-24T06:39:19.140Z,14.03
2018-06-24T06:40:34.082Z,14.03
2018-06-24T06:41:19.446Z,14.2
2018-06-24T06:42:19.465Z,14.14
2018-06-24T06:43:19.489Z,14.33
2018-06-24T06:44:19.507Z,14.33
2018-06-24T06:45:20.336Z,14.5
2018-06-24T06:46:19.555Z,14.42
2018-06-24T06:47:19.583Z,14.47
2018-06-24T06:48:34.258Z,14.42
2018-06-24T06:49:19.621Z,14.52
2018-06-24T06:50:19.649Z,14.43
2018-06-24T06:51:19.416Z,14.42
2018-06-24T06:53:19.712Z,14.64
2018-06-24T06:54:19.731Z,14.51
2018-06-24T06:55:19.753Z,14.61
2018-06-24T06:56:19.780Z,14.58
2018-06-24T06:57:19.801Z,14.61
2018-06-24T06:58:19.830Z,14.61
2018-06-24T06:59:19.585Z,14.73
2018-06-24T07:00:19.983Z,14.62
2018-06-24T07:01:19.887Z,14.62
2018-06-24T07:02:19.912Z,14.55
2018-06-24T07:03:34.335Z,14.68
2018-06-24T07:04:19.953Z,14.52
2018-06-24T07:05:19.979Z,14.52
2018-06-24T07:06:20.001Z,14.46
2018-06-24T07:08:20.043Z,14.65
2018-06-24T07:09:20.066Z,14.62
2018-06-24T07:10:20.085Z,14.65
2018-06-24T07:11:19.593Z,14.73
2018-06-24T07:12:20.130Z,14.57
2018-06-24T07:13:20.155Z,14.73
2018-06-24T07:14:20.182Z,14.7
2018-06-24T07:15:20.252Z,14.62
2018-06-24T07:16:20.221Z,14.65
2018-06-24T07:17:20.249Z,14.84
2018-06-24T07:18:20.272Z,14.78
2018-06-24T07:19:20.033Z,14.89
2018-06-24T07:20:20.314Z,14.92
2018-06-24T07:21:20.333Z,14.92
2018-06-24T07:22:35.024Z,14.98
2018-06-24T07:23:20.382Z,15.01
2018-06-24T07:24:20.400Z,15.06
2018-06-24T07:25:35.091Z,14.88
2018-06-24T07:26:20.448Z,15.03
2018-06-24T07:27:20.475Z,14.95
2018-06-24T07:28:20.234Z,15.06
2018-06-24T07:29:20.515Z,15.09
2018-06-24T07:30:20.634Z,15.2
2018-06-24T07:31:20.565Z,15.25
2018-06-24T07:32:20.583Z,15.32
2018-06-24T07:33:20.870Z,15.36
2018-06-24T07:34:20.632Z,15.19
2018-06-24T07:35:35.309Z,15.27
2018-06-24T07:36:20.413Z,15.43
2018-06-24T07:37:20.182Z,15.53
2018-06-24T07:38:20.714Z,15.49
2018-06-24T07:39:21.025Z,15.56
2018-06-24T07:40:20.507Z,15.36
2018-06-24T07:41:20.786Z,15.46
2018-06-24T07:42:20.814Z,15.32
2018-06-24T07:43:20.572Z,15.49
2018-06-24T07:45:20.873Z,15.46
2018-06-24T07:46:20.895Z,15.46
2018-06-24T07:47:20.920Z,15.41
2018-06-24T07:48:20.944Z,15.32
2018-06-24T07:49:20.965Z,15.21
2018-06-24T07:50:21.156Z,15.06
2018-06-24T07:51:35.416Z,15.11
2018-06-24T07:52:21.039Z,15.11
2018-06-24T07:53:21.056Z,15.19
2018-06-24T07:54:21.093Z,15.01
2018-06-24T07:55:21.102Z,15.1
2018-06-24T07:56:21.128Z,15.25
2018-06-24T07:58:20.920Z,15.36
2018-06-24T07:59:20.943Z,15.29
2018-06-24T08:00:21.217Z,15.31
2018-06-24T08:01:21.240Z,15.23
2018-06-24T08:02:21.008Z,15.31
2018-06-24T08:03:21.429Z,15.29
2018-06-24T08:04:21.306Z,15.28
2018-06-24T08:06:21.456Z,15.2
2018-06-24T08:07:36.039Z,15.14
2018-06-24T08:09:21.167Z,15.34
2018-06-24T08:12:21.490Z,15.46
2018-06-24T08:13:21.513Z,15.6
2018-06-24T08:14:21.533Z,15.72
2018-06-24T08:15:21.300Z,15.62
2018-06-24T08:16:21.585Z,15.83
2018-06-24T08:17:21.617Z,15.8
2018-06-24T08:18:36.284Z,15.76
2018-06-24T08:19:21.653Z,15.71
2018-06-24T08:20:21.670Z,15.56
2018-06-24T08:21:21.701Z,15.47
2018-06-24T08:23:36.502Z,15.38
2018-06-24T08:25:21.530Z,15.32
2018-06-24T08:26:21.807Z,15.23
2018-06-24T08:27:21.835Z,15.17
2018-06-24T08:28:21.857Z,15.34
2018-06-24T08:29:36.542Z,15.34
2018-06-24T08:30:21.904Z,15.19
2018-06-24T08:31:21.925Z,15.1
2018-06-24T08:32:21.949Z,15.11
2018-06-24T08:33:21.971Z,14.92
2018-06-24T08:34:21.993Z,15.01
2018-06-24T08:36:21.784Z,15.23
2018-06-24T08:37:22.068Z,15.16
2018-06-24T08:38:36.744Z,15.23
2018-06-24T08:39:21.859Z,15.1
2018-06-24T08:40:22.229Z,15.28
2018-06-24T08:41:21.996Z,15.17
2018-06-24T08:42:22.178Z,15.29
2018-06-24T08:43:21.950Z,15.14
2018-06-24T08:44:22.219Z,15.11
2018-06-24T08:45:21.985Z,15.2
2018-06-24T08:46:21.751Z,15.2
2018-06-24T08:47:22.570Z,15.29
2018-06-24T08:48:22.315Z,15.43
2018-06-24T08:49:22.339Z,15.39
2018-06-24T08:51:22.123Z,15.54
2018-06-24T08:53:22.219Z,15.29
2018-06-24T08:54:22.589Z,15.34
2018-06-24T08:56:22.494Z,15.41
2018-06-24T08:57:22.626Z,15.6
2018-06-24T08:58:22.280Z,15.6
2018-06-24T08:59:22.564Z,15.54
2018-06-24T09:00:22.589Z,15.51
2018-06-24T09:01:22.607Z,15.56
2018-06-24T09:02:22.374Z,15.68
2018-06-24T09:03:37.314Z,15.68
2018-06-24T09:04:22.679Z,15.67
2018-06-24T09:05:22.799Z,15.64
2018-06-24T09:06:22.464Z,15.62
2018-06-24T09:07:22.488Z,15.64
2018-06-24T09:08:22.510Z,15.59
2018-06-24T09:09:22.533Z,15.69
2018-06-24T09:10:37.479Z,15.86
2018-06-24T09:11:22.581Z,15.84
2018-06-24T09:12:22.602Z,15.97
2018-06-24T09:13:22.880Z,15.87
2018-06-24T09:14:37.603Z,16.04
2018-06-24T09:16:22.957Z,15.96
2018-06-24T09:17:22.974Z,16.09
2018-06-24T09:18:37.659Z,16
2018-06-24T09:19:22.507Z,16.11
2018-06-24T09:20:23.044Z,16.2
2018-06-24T09:21:23.275Z,16.3
2018-06-24T09:22:23.146Z,16.09
2018-06-24T09:23:23.114Z,16.02
2018-06-24T09:24:37.809Z,16.24
2018-06-24T09:25:22.903Z,16.46
2018-06-24T09:26:37.850Z,16.66
2018-06-24T09:27:23.213Z,16.68
2018-06-24T09:28:22.973Z,16.75
2018-06-24T09:29:23.251Z,17.07
2018-06-24T09:30:23.280Z,17.21
2018-06-24T09:31:23.043Z,17.15
2018-06-24T09:32:23.340Z,17.04
2018-06-24T09:33:23.346Z,17.11
2018-06-24T09:34:23.379Z,17.16
2018-06-24T09:35:23.134Z,17.22
2018-06-24T09:36:23.419Z,17.14
2018-06-24T09:37:23.443Z,17.11
2018-06-24T09:38:23.208Z,16.96
2018-06-24T09:40:23.513Z,16.66
2018-06-24T09:41:23.541Z,16.7
2018-06-24T09:43:23.590Z,17.41
2018-06-24T09:45:23.374Z,17.33
2018-06-24T09:46:23.657Z,17.28
2018-06-24T09:47:23.423Z,17.19
2018-06-24T09:48:23.705Z,17.28
2018-06-24T09:49:23.737Z,17.23
2018-06-24T09:50:23.751Z,17.16
2018-06-24T09:51:23.788Z,17.18
2018-06-24T09:52:23.804Z,17.21
2018-06-24T09:53:23.827Z,17.25
2018-06-24T09:54:23.598Z,17.21
2018-06-24T09:55:23.877Z,17.21
2018-06-24T09:56:23.640Z,17.28
2018-06-24T09:57:23.920Z,17.15
2018-06-24T09:58:38.605Z,17.3
2018-06-24T09:59:23.971Z,17.16
2018-06-24T10:00:23.997Z,17.18
2018-06-24T10:01:23.756Z,17.23
2018-06-24T10:02:24.040Z,17.51
2018-06-24T10:04:24.087Z,17.97
2018-06-24T10:06:24.136Z,18.1
2018-06-24T10:07:24.160Z,18.35
2018-06-24T10:09:24.208Z,18.37
2018-06-24T10:10:24.233Z,18.37
2018-06-24T10:11:23.998Z,18.41
2018-06-24T10:12:24.279Z,18.37
2018-06-24T10:13:38.972Z,18.21
2018-06-24T10:14:24.328Z,18.05
2018-06-24T10:15:24.354Z,18.18
2018-06-24T10:16:24.383Z,18.05
2018-06-24T10:18:24.429Z,17.89
2018-06-24T10:19:24.189Z,17.64
2018-06-24T10:20:24.482Z,17.56
2018-06-24T10:21:39.161Z,17.66
2018-06-24T10:22:24.264Z,17.64
2018-06-24T10:23:24.548Z,17.96
2018-06-24T10:24:24.313Z,18.05
2018-06-24T10:25:24.900Z,17.9
2018-06-24T10:27:24.641Z,18.14
2018-06-24T10:28:24.411Z,17.92
2018-06-24T10:29:24.856Z,17.7
2018-06-24T10:30:24.717Z,17.74
2018-06-24T10:31:24.745Z,17.81
2018-06-24T10:32:24.504Z,17.93
2018-06-24T10:33:24.788Z,18.08
2018-06-24T10:34:24.812Z,18.1
2018-06-24T10:35:24.844Z,18.35
2018-06-24T10:36:24.604Z,18.48
2018-06-24T10:37:24.999Z,18.5
2018-06-24T10:38:24.912Z,18.78
2018-06-24T10:39:24.945Z,18.8
2018-06-24T10:40:24.962Z,18.84
2018-06-24T10:41:24.998Z,18.95
2018-06-24T10:42:24.762Z,19.11
2018-06-24T10:43:24.772Z,19.26
2018-06-24T10:44:25.061Z,19.07
2018-06-24T10:45:39.484Z,19.02
2018-06-24T10:46:25.160Z,18.9
2018-06-24T10:47:25.141Z,18.91
2018-06-24T10:48:25.155Z,18.58
2018-06-24T10:49:24.922Z,18.54
2018-06-24T10:50:24.945Z,18.35
2018-06-24T10:51:24.969Z,18.14
2018-06-24T10:52:24.996Z,17.95
2018-06-24T10:53:25.021Z,17.99
2018-06-24T10:54:25.050Z,18.1
2018-06-24T10:55:25.426Z,17.75
2018-06-24T10:56:25.349Z,17.93
2018-06-24T10:57:25.380Z,18.02
2018-06-24T10:58:25.141Z,18.03
2018-06-24T11:00:25.189Z,18.1
2018-06-24T11:01:40.131Z,18.17
2018-06-24T11:02:25.238Z,18.1
2018-06-24T11:03:25.004Z,17.78
2018-06-24T11:04:25.548Z,17.68
2018-06-24T11:05:25.569Z,17.52
2018-06-24T11:06:25.593Z,17.56
2018-06-24T11:07:25.617Z,17.7
2018-06-24T11:08:25.383Z,17.79
2018-06-24T11:09:25.406Z,17.86
2018-06-24T11:10:25.686Z,18.07
2018-06-24T11:11:25.716Z,18.11
2018-06-24T11:12:25.479Z,18.3
2018-06-24T11:13:25.763Z,18.51
2018-06-24T11:14:25.785Z,18.51
2018-06-24T11:15:25.807Z,18.48
2018-06-24T11:16:25.923Z,18.39
2018-06-24T11:17:40.528Z,18.26
2018-06-24T11:18:25.881Z,18.12
2018-06-24T11:19:25.905Z,18.42
2018-06-24T11:21:25.954Z,18.7
2018-06-24T11:22:25.979Z,18.54
2018-06-24T11:23:26.002Z,18.32
2018-06-24T11:24:26.033Z,18.32
2018-06-24T11:25:25.798Z,18.05
2018-06-24T11:26:26.079Z,18.11
2018-06-24T11:27:26.104Z,18.15
2018-06-24T11:28:26.130Z,18.18
2018-06-24T11:29:26.157Z,18.03
2018-06-24T11:30:25.917Z,18.05
2018-06-24T11:32:26.224Z,18.37
2018-06-24T11:33:40.907Z,18.52
2018-06-24T11:34:26.015Z,18.36
2018-06-24T11:35:26.040Z,18.36
2018-06-24T11:36:26.321Z,18.29
2018-06-24T11:37:26.343Z,18.12
2018-06-24T11:38:26.116Z,17.92
2018-06-24T11:39:26.390Z,17.62
2018-06-24T11:40:26.426Z,17.74
2018-06-24T11:41:26.186Z,17.56
2018-06-24T11:42:26.465Z,17.63
2018-06-24T11:43:41.154Z,18.03
2018-06-24T11:45:26.538Z,17.89
2018-06-24T11:46:26.665Z,17.97
2018-06-24T11:47:26.585Z,18.05
2018-06-24T11:48:41.015Z,18.15
2018-06-24T11:49:26.637Z,18.1
2018-06-24T11:50:26.857Z,18.17
2018-06-24T11:51:26.683Z,18.27
2018-06-24T11:52:26.449Z,18.27
2018-06-24T11:54:26.758Z,18.33
2018-06-24T11:55:41.442Z,18.11
2018-06-24T11:56:41.465Z,17.86
2018-06-24T11:57:26.827Z,17.84
2018-06-24T11:58:26.851Z,17.78
2018-06-24T12:00:27.054Z,17.63
2018-06-24T12:01:26.922Z,17.74
2018-06-24T12:02:26.961Z,17.72
2018-06-24T12:03:26.970Z,17.99
2018-06-24T12:04:27.001Z,18.12
2018-06-24T12:05:26.772Z,18.17
2018-06-24T12:07:26.553Z,18.41
2018-06-24T12:08:27.090Z,18.47
2018-06-24T12:09:26.858Z,18.67
2018-06-24T12:10:26.881Z,18.58
2018-06-24T12:11:27.163Z,18.84
2018-06-24T12:12:26.929Z,18.99
2018-06-24T12:13:27.214Z,18.98
2018-06-24T12:14:26.979Z,18.9
2018-06-24T12:15:26.745Z,19.18
2018-06-24T12:16:27.285Z,19.32
2018-06-24T12:17:27.727Z,19.5
2018-06-24T12:18:27.336Z,19.44
2018-06-24T12:19:27.365Z,19.14
2018-06-24T12:20:41.785Z,19.06
2018-06-24T12:22:27.434Z,19.23
2018-06-24T12:23:27.503Z,19.33
2018-06-24T12:24:27.480Z,19.55
2018-06-24T12:25:27.245Z,19.81
2018-06-24T12:26:27.273Z,20.18
2018-06-24T12:27:27.550Z,20.43
2018-06-24T12:28:27.578Z,20.72
2018-06-24T12:29:27.343Z,20.72
2018-06-24T12:30:27.626Z,20.95
2018-06-24T12:31:27.394Z,21.25
2018-06-24T12:32:27.680Z,21.12
2018-06-24T12:33:27.445Z,20.66
2018-06-24T12:34:27.466Z,20.77
2018-06-24T12:35:27.747Z,20.57
2018-06-24T12:36:42.513Z,20.51
2018-06-24T12:37:27.610Z,20.57
2018-06-24T12:39:27.945Z,20.5
2018-06-24T12:40:27.873Z,20.18
2018-06-24T12:41:27.642Z,20.05
2018-06-24T12:42:27.928Z,19.92
2018-06-24T12:43:27.817Z,19.92
2018-06-24T12:44:27.715Z,19.86
2018-06-24T12:45:27.996Z,19.99
2018-06-24T12:46:28.025Z,19.95
2018-06-24T12:47:28.047Z,19.87
2018-06-24T12:48:28.077Z,19.77
2018-06-24T12:49:27.839Z,19.68
2018-06-24T12:51:28.149Z,19.46
2018-06-24T12:52:42.896Z,19.13
2018-06-24T12:54:27.961Z,19.28
2018-06-24T12:55:28.250Z,19.21
2018-06-24T12:56:28.272Z,18.91
2018-06-24T12:57:28.298Z,18.66
2018-06-24T12:58:28.886Z,18.63
2018-06-24T12:59:28.984Z,18.2
2018-06-24T13:00:31.106Z,18.32
2018-06-24T13:01:28.135Z,18.27
2018-06-24T13:02:28.421Z,18.27
2018-06-24T13:03:28.441Z,18.29
2018-06-24T13:04:28.465Z,18.15
2018-06-24T13:05:28.349Z,18.25
2018-06-24T13:06:28.513Z,18.23
2018-06-24T13:07:28.023Z,18.14
2018-06-24T13:08:43.233Z,18.03
2018-06-24T13:09:28.588Z,17.99
2018-06-24T13:11:28.389Z,18.15
2018-06-24T13:12:28.399Z,18.26
2018-06-24T13:13:28.525Z,18.47
2018-06-24T13:14:28.448Z,18.55
2018-06-24T13:15:28.472Z,18.87
2018-06-24T13:16:28.756Z,18.81
2018-06-24T13:17:43.440Z,19.22
2018-06-24T13:18:28.545Z,19.47
2018-06-24T13:19:28.575Z,19.68
2018-06-24T13:20:28.593Z,19.63
2018-06-24T13:21:28.879Z,19.58
2018-06-24T13:22:28.912Z,19.66
2018-06-24T13:23:43.328Z,19.55
2018-06-24T13:24:28.950Z,19.32
2018-06-24T13:25:28.988Z,19.18
2018-06-24T13:26:29.018Z,19.29
2018-06-24T13:27:29.030Z,19.25
2018-06-24T13:28:29.047Z,19.41
2018-06-24T13:29:43.735Z,19.41
2018-06-24T13:30:29.095Z,19.56
2018-06-24T13:31:29.120Z,19.29
2018-06-24T13:32:29.142Z,19.54
2018-06-24T13:33:43.828Z,19.48
2018-06-24T13:35:28.706Z,19.66
2018-06-24T13:36:29.246Z,19.91
2018-06-24T13:37:28.751Z,19.88
2018-06-24T13:38:29.291Z,19.71
2018-06-24T13:39:29.363Z,19.65
2018-06-24T13:40:29.512Z,19.61
2018-06-24T13:41:29.369Z,19.58
2018-06-24T13:42:29.501Z,19.47
2018-06-24T13:43:29.415Z,18.98
2018-06-24T13:45:44.126Z,19.46
2018-06-24T13:46:29.233Z,19.47
2018-06-24T13:47:29.511Z,19.5
2018-06-24T13:48:29.278Z,19.41
2018-06-24T13:49:43.965Z,19.43
2018-06-24T13:50:29.328Z,19.59
2018-06-24T13:51:29.608Z,19.59
2018-06-24T13:52:29.635Z,19.84
2018-06-24T13:53:29.403Z,19.91
2018-06-24T13:54:29.167Z,19.77
2018-06-24T13:55:44.374Z,19.87
2018-06-24T13:56:29.732Z,19.8
2018-06-24T13:57:29.756Z,19.96
2018-06-24T13:58:29.529Z,20.21
2018-06-24T13:59:29.565Z,19.94
2018-06-24T14:00:44.496Z,19.69
2018-06-24T14:01:29.859Z,19.51
2018-06-24T14:02:29.622Z,19.59
2018-06-24T14:03:29.656Z,19.48